Time;durP1;ratioP1;P1;durP2;ratioP2;P2;SDS_P1;SDS_P2;PMS_P1;PMS_P2;Temp;Humidity;BMP_temperature;BMP_pressure;BME280_temperature;BME280_humidity;BME280_pressure;Samples;Min_cycle;Max_cycle;Signal;HPM_P1;HPM_P2
2023/04/23 00:01:52;;;;;;;34.72;29.73;;;;;;;10.08;100.00;100667.47;5276704;28;20060;-72
2023/04/23 00:04:24;;;;;;;36.78;30.48;;;;;;;10.06;100.00;100660.69;5278074;28;20100;-73
2023/04/23 00:06:56;;;;;;;35.55;29.95;;;;;;;10.03;100.00;100663.56;5276830;28;20024;-72
2023/04/23 00:09:31;;;;;;;36.08;30.42;;;;;;;10.01;100.00;100657.66;5279029;28;20099;-72
2023/04/23 00:12:02;;;;;;;34.17;30.33;;;;;;;9.93;100.00;100656.50;5278613;28;20515;-72
2023/04/23 00:14:34;;;;;;;36.08;28.77;;;;;;;9.91;100.00;100649.75;5279353;28;20107;-72
2023/04/23 00:17:06;;;;;;;36.60;30.33;;;;;;;9.91;100.00;100650.56;5280755;28;20032;-72
2023/04/23 00:19:37;;;;;;;36.35;30.83;;;;;;;9.99;100.00;100653.34;5277037;28;20035;-72
2023/04/23 00:22:08;;;;;;;35.25;29.30;;;;;;;9.93;100.00;100647.84;5276824;28;20211;-72
2023/04/23 00:24:40;;;;;;;31.90;28.00;;;;;;;9.90;100.00;100648.09;5261040;28;20038;-72
2023/04/23 00:27:11;;;;;;;36.10;28.98;;;;;;;9.88;100.00;100645.59;5283369;28;20020;-72
2023/04/23 00:29:43;;;;;;;32.00;27.95;;;;;;;9.90;100.00;100651.53;5281616;28;20043;-72
2023/04/23 00:32:15;;;;;;;32.53;27.95;;;;;;;9.91;100.00;100652.34;5275791;28;20032;-72
2023/04/23 00:34:48;;;;;;;32.47;28.35;;;;;;;9.86;100.00;100646.69;5258722;28;20036;-72
2023/04/23 00:37:19;;;;;;;30.70;26.83;;;;;;;9.83;100.00;100642.53;5282145;28;20131;-72
2023/04/23 00:39:50;;;;;;;29.67;26.40;;;;;;;9.87;100.00;100646.56;5285170;28;20103;-72
2023/04/23 00:42:22;;;;;;;29.58;26.15;;;;;;;9.87;100.00;100641.31;5282411;28;20107;-72
2023/04/23 00:44:53;;;;;;;31.02;25.52;;;;;;;9.84;100.00;100631.09;5285798;28;20028;-72
2023/04/23 00:47:25;;;;;;;31.05;27.13;;;;;;;9.86;100.00;100626.59;5264602;28;20039;-72
2023/04/23 00:49:58;;;;;;;30.00;26.17;;;;;;;9.87;100.00;100630.84;5280658;28;20250;-72
2023/04/23 00:52:30;;;;;;;28.38;25.30;;;;;;;9.88;100.00;100627.25;5282468;28;20035;-72
2023/04/23 00:55:01;;;;;;;30.25;25.80;;;;;;;9.86;100.00;100620.53;5278178;28;20485;-72
2023/04/23 00:57:35;;;;;;;27.80;24.85;;;;;;;9.91;100.00;100621.78;5282019;28;20409;-72
2023/04/23 01:00:07;;;;;;;28.08;25.08;;;;;;;9.98;100.00;100622.09;5280460;28;20032;-73
2023/04/23 01:02:41;;;;;;;30.10;24.73;;;;;;;10.04;100.00;100618.97;5282373;28;20111;-72
2023/04/23 01:05:14;;;;;;;28.45;25.48;;;;;;;9.99;100.00;100614.09;5283180;28;20314;-72
2023/04/23 01:07:46;;;;;;;26.90;23.95;;;;;;;10.01;100.00;100608.75;5279619;28;20034;-72
2023/04/23 01:10:18;;;;;;;25.83;23.13;;;;;;;10.01;100.00;100606.13;5280412;28;20020;-72
2023/04/23 01:12:49;;;;;;;27.10;24.17;;;;;;;10.03;100.00;100606.81;5277238;28;20055;-72
2023/04/23 01:15:21;;;;;;;27.02;24.13;;;;;;;10.09;100.00;100608.09;5280386;28;20496;-72
2023/04/23 01:17:52;;;;;;;28.30;25.23;;;;;;;10.03;100.00;100605.97;5280164;28;20618;-72
2023/04/23 01:20:24;;;;;;;28.17;25.27;;;;;;;9.99;100.00;100598.38;5281394;28;20512;-72
2023/04/23 01:22:55;;;;;;;28.58;24.55;;;;;;;9.98;100.00;100599.34;5282379;28;20031;-72
2023/04/23 01:25:27;;;;;;;29.42;24.38;;;;;;;10.03;100.00;100598.13;5285285;28;20017;-72
2023/04/23 01:27:58;;;;;;;27.27;24.40;;;;;;;10.02;100.00;100596.47;5284255;28;20063;-72
2023/04/23 01:30:30;;;;;;;26.75;23.95;;;;;;;10.02;100.00;100601.72;5282158;28;20080;-72
2023/04/23 01:33:03;;;;;;;25.98;23.27;;;;;;;10.03;100.00;100598.13;5283788;28;20029;-72
2023/04/23 01:35:35;;;;;;;27.00;24.13;;;;;;;10.00;100.00;100596.63;5276847;28;20024;-72
2023/04/23 01:38:09;;;;;;;27.42;24.10;;;;;;;10.04;100.00;100599.78;5283909;28;20470;-72
2023/04/23 01:40:41;;;;;;;27.80;24.95;;;;;;;10.01;100.00;100594.84;5281466;28;20024;-72
2023/04/23 01:43:12;;;;;;;26.17;23.10;;;;;;;10.03;100.00;100595.50;5276244;28;20078;-72
2023/04/23 01:45:44;;;;;;;26.17;23.30;;;;;;;10.02;100.00;100596.47;5261828;28;20028;-72
2023/04/23 01:48:16;;;;;;;25.98;23.15;;;;;;;10.05;100.00;100593.59;5281358;28;20024;-72
2023/04/23 01:50:49;;;;;;;25.10;22.55;;;;;;;10.11;100.00;100596.50;5279167;28;20024;-72
2023/04/23 01:53:20;;;;;;;26.17;22.67;;;;;;;10.09;100.00;100595.81;5277349;28;20033;-73
2023/04/23 01:55:53;;;;;;;25.35;22.65;;;;;;;10.16;100.00;100596.13;5282409;28;20035;-72
2023/04/23 01:58:25;;;;;;;;;;;;;;;10.68;100.00;100594.16;5287281;28;20044;-72
2023/04/23 02:00:56;;;;;;;24.37;21.77;;;;;;;10.13;100.00;100596.38;5281080;28;19927;-72
2023/04/23 02:03:29;;;;;;;23.15;20.75;;;;;;;10.07;100.00;100589.88;5281407;28;20497;-72
2023/04/23 02:06:00;;;;;;;24.55;21.98;;;;;;;10.05;100.00;100599.66;5284692;28;20017;-72
2023/04/23 02:08:31;;;;;;;24.73;22.13;;;;;;;10.08;100.00;100598.59;5281775;28;20028;-72
2023/04/23 02:11:05;;;;;;;23.52;21.02;;;;;;;10.09;100.00;100592.38;5261466;28;20021;-72
2023/04/23 02:13:36;;;;;;;23.80;21.38;;;;;;;9.93;100.00;100575.38;5280722;28;20033;-72
2023/04/23 02:16:08;;;;;;;22.80;20.50;;;;;;;10.10;100.00;100581.75;5262329;28;20021;-72
2023/04/23 02:18:39;;;;;;;22.67;20.27;;;;;;;10.09;100.00;100577.50;5277264;28;20040;-72
2023/04/23 02:21:11;;;;;;;21.92;19.63;;;;;;;10.14;100.00;100577.09;5278977;28;20028;-72
2023/04/23 02:23:43;;;;;;;22.42;20.13;;;;;;;10.15;100.00;100584.81;5279287;28;20066;-72
2023/04/23 02:26:14;;;;;;;22.02;19.80;;;;;;;10.19;100.00;100583.59;5280568;28;20438;-72
2023/04/23 02:28:46;;;;;;;21.60;19.48;;;;;;;10.18;100.00;100587.16;5262115;28;20036;-72
2023/04/23 02:31:19;;;;;;;22.15;19.88;;;;;;;10.20;100.00;100581.81;5282504;28;20021;-72
2023/04/23 02:33:50;;;;;;;21.35;19.15;;;;;;;10.21;100.00;100584.28;5261617;28;20238;-72
2023/04/23 02:36:22;;;;;;;21.15;18.90;;;;;;;10.19;100.00;100585.34;5278459;28;20021;-72
2023/04/23 02:38:53;;;;;;;21.90;19.67;;;;;;;10.17;100.00;100572.41;5281027;28;20299;-72
2023/04/23 02:41:24;;;;;;;21.55;19.35;;;;;;;10.21;100.00;100584.28;5279122;28;20020;-72
2023/04/23 02:43:56;;;;;;;21.15;19.02;;;;;;;10.19;100.00;100574.88;5280158;28;20028;-72
2023/04/23 02:46:27;;;;;;;20.55;18.42;;;;;;;10.12;100.00;100572.00;5282347;28;20024;-72
2023/04/23 02:48:58;;;;;;;21.25;19.15;;;;;;;10.11;100.00;100572.13;5279705;28;20255;-72
2023/04/23 02:51:30;;;;;;;21.00;18.92;;;;;;;10.17;100.00;100572.41;5280713;28;20106;-72
2023/04/23 02:54:02;;;;;;;20.58;18.48;;;;;;;10.15;100.00;100573.50;5273858;28;20028;-72
2023/04/23 02:56:34;;;;;;;21.40;19.23;;;;;;;10.19;100.00;100570.50;5280120;28;20032;-72
2023/04/23 02:59:07;;;;;;;20.80;18.80;;;;;;;10.19;100.00;100569.66;5281015;28;20310;-72
2023/04/23 03:01:38;;;;;;;21.48;19.38;;;;;;;10.22;100.00;100572.00;5280278;28;20017;-72
2023/04/23 03:04:11;;;;;;;20.38;18.45;;;;;;;10.20;100.00;100566.09;5281442;28;20027;-72
2023/04/23 03:06:42;;;;;;;20.73;18.60;;;;;;;10.24;100.00;100564.88;5262955;28;20738;-72
2023/04/23 03:09:14;;;;;;;21.38;19.17;;;;;;;10.23;100.00;100561.41;5277858;28;20114;-72
2023/04/23 03:11:46;;;;;;;21.17;19.17;;;;;;;10.24;100.00;100555.22;5281899;28;20034;-72
2023/04/23 03:14:17;;;;;;;21.15;18.95;;;;;;;10.26;100.00;100549.03;5276966;28;20488;-72
2023/04/23 03:16:49;;;;;;;20.65;18.55;;;;;;;10.22;100.00;100556.31;5259829;28;20040;-72
2023/04/23 03:19:20;;;;;;;20.40;18.23;;;;;;;10.23;100.00;100556.19;5284069;28;20023;-72
2023/04/23 03:21:52;;;;;;;19.77;17.88;;;;;;;10.21;100.00;100545.00;5276718;28;20032;-72
2023/04/23 03:24:23;;;;;;;20.45;18.27;;;;;;;10.24;100.00;100551.78;5261233;28;20035;-72
2023/04/23 03:26:54;;;;;;;20.27;18.20;;;;;;;10.21;100.00;100541.56;5275605;28;20040;-72
2023/04/23 03:29:26;;;;;;;20.42;18.23;;;;;;;10.19;100.00;100546.94;5280473;28;20192;-72
2023/04/23 03:31:57;;;;;;;20.17;18.08;;;;;;;10.22;100.00;100551.06;5278465;28;20024;-72
2023/04/23 03:34:28;;;;;;;18.98;17.08;;;;;;;10.25;100.00;100542.97;5279412;28;20516;-72
2023/04/23 03:37:00;;;;;;;21.02;18.92;;;;;;;10.30;100.00;100548.63;5281012;28;20028;-72
2023/04/23 03:39:31;;;;;;;20.35;18.35;;;;;;;10.27;100.00;100538.44;5275247;28;20024;-72
2023/04/23 03:42:04;;;;;;;20.55;18.50;;;;;;;10.27;100.00;100535.00;5276965;28;20389;-72
2023/04/23 03:44:35;;;;;;;19.25;17.42;;;;;;;10.33;100.00;100547.53;5278591;28;20455;-72
2023/04/23 03:47:06;;;;;;;20.73;18.65;;;;;;;10.33;100.00;100545.75;5280660;28;20048;-72
2023/04/23 03:49:39;;;;;;;20.35;18.45;;;;;;;10.36;100.00;100548.09;5276337;28;20023;-72
2023/04/23 03:52:10;;;;;;;20.00;18.00;;;;;;;10.37;100.00;100548.91;5282742;28;20047;-72
2023/04/23 03:54:41;;;;;;;19.55;17.63;;;;;;;10.40;100.00;100551.28;5274140;28;20028;-72
2023/04/23 03:57:13;;;;;;;21.00;18.85;;;;;;;10.38;100.00;100547.94;5280155;28;20032;-72
2023/04/23 03:59:44;;;;;;;19.92;18.02;;;;;;;10.42;100.00;100558.03;5278718;28;20536;-72
2023/04/23 04:02:15;;;;;;;21.10;19.10;;;;;;;10.36;100.00;100548.09;5277595;28;20074;-72
2023/04/23 04:04:48;;;;;;;19.77;17.88;;;;;;;10.40;100.00;100554.72;5278954;28;20377;-72
2023/04/23 04:07:20;;;;;;;20.85;18.75;;;;;;;10.42;100.00;100552.81;5276798;28;20021;-72
2023/04/23 04:09:51;;;;;;;20.25;18.35;;;;;;;10.39;100.00;100550.44;5277105;28;20496;-72
2023/04/23 04:12:22;;;;;;;19.33;17.33;;;;;;;10.36;100.00;100549.88;5281250;28;20028;-72
2023/04/23 04:14:54;;;;;;;19.75;17.45;;;;;;;10.37;100.00;100562.84;5281032;28;20108;-72
2023/04/23 04:17:25;;;;;;;19.60;17.70;;;;;;;10.35;100.00;100559.53;5263108;28;20040;-72
2023/04/23 04:19:56;;;;;;;20.52;18.33;;;;;;;10.35;100.00;100564.78;5283458;28;20418;-72
2023/04/23 04:22:28;;;;;;;19.13;17.10;;;;;;;10.34;100.00;100562.28;5284842;28;20389;-72
2023/04/23 04:24:59;;;;;;;19.88;17.10;;;;;;;10.32;100.00;100567.66;5281927;28;20081;-72
2023/04/23 04:27:33;;;;;;;19.45;17.50;;;;;;;10.34;100.00;100567.50;5284397;28;20172;-72
2023/04/23 04:30:05;;;;;;;20.48;18.38;;;;;;;10.30;100.00;100560.88;5283072;28;20027;-72
2023/04/23 04:32:37;;;;;;;19.05;17.15;;;;;;;10.32;100.00;100567.66;5282172;28;20028;-72
2023/04/23 04:35:09;;;;;;;20.02;18.02;;;;;;;10.33;100.00;100558.00;5266327;28;20027;-72
2023/04/23 04:37:42;;;;;;;19.67;17.58;;;;;;;10.37;100.00;100557.59;5263887;28;20031;-72
2023/04/23 04:40:14;;;;;;;19.55;17.65;;;;;;;10.36;100.00;100561.19;5281402;28;20512;-72
2023/04/23 04:42:45;;;;;;;19.05;17.23;;;;;;;10.36;100.00;100563.81;5287427;28;20024;-72
2023/04/23 04:45:17;;;;;;;19.10;17.10;;;;;;;10.35;100.00;100562.16;5266506;28;20032;-72
2023/04/23 04:47:48;;;;;;;19.35;17.40;;;;;;;10.35;100.00;100559.53;5260161;28;20232;-72
2023/04/23 04:50:20;;;;;;;19.95;17.95;;;;;;;10.36;100.00;100558.56;5260382;28;20887;-72
2023/04/23 04:52:51;;;;;;;18.83;16.90;;;;;;;10.33;100.00;100552.78;5266274;28;20505;-72
2023/04/23 04:55:22;;;;;;;20.00;17.88;;;;;;;10.30;100.00;100560.88;5260694;28;20028;-72
2023/04/23 04:57:54;;;;;;;18.65;16.95;;;;;;;10.32;100.00;100561.59;5280732;28;20124;-72
2023/04/23 05:00:28;;;;;;;19.55;17.55;;;;;;;10.30;100.00;100560.88;5282464;28;20486;-72
2023/04/23 05:02:59;;;;;;;21.50;19.40;;;;;;;10.29;100.00;100554.00;5280628;28;20032;-72
2023/04/23 05:05:32;;;;;;;18.77;16.75;;;;;;;10.34;100.00;100570.13;5279563;28;20051;-72
2023/04/23 05:08:03;;;;;;;18.45;16.67;;;;;;;10.30;100.00;100561.72;5261419;28;20028;-72
2023/04/23 05:10:34;;;;;;;18.38;16.58;;;;;;;10.35;100.00;100563.94;5278839;28;20024;-72
2023/04/23 05:13:05;;;;;;;19.55;17.52;;;;;;;10.37;100.00;100562.84;5280327;28;20033;-72
2023/04/23 05:15:37;;;;;;;20.30;18.40;;;;;;;10.41;100.00;100564.22;5281353;28;20036;-72
2023/04/23 05:18:09;;;;;;;20.27;18.27;;;;;;;10.44;100.00;100563.94;5285574;28;20020;-72
2023/04/23 05:20:41;;;;;;;19.70;17.80;;;;;;;10.48;100.00;100560.09;5283250;28;20056;-72
2023/04/23 05:23:13;;;;;;;19.67;17.63;;;;;;;10.51;100.00;100561.63;5279720;28;20072;-72
2023/04/23 05:25:44;;;;;;;18.98;17.17;;;;;;;10.58;100.00;100564.53;5278150;28;20482;-72
2023/04/23 05:28:15;;;;;;;19.13;17.20;;;;;;;10.57;100.00;100568.94;5281229;28;20024;-72
2023/04/23 05:30:47;;;;;;;20.45;17.75;;;;;;;10.61;100.00;100570.31;5279998;28;20032;-72
2023/04/23 05:33:18;;;;;;;18.35;16.55;;;;;;;10.60;100.00;100568.66;5279162;28;20028;-72
2023/04/23 05:35:49;;;;;;;19.67;17.80;;;;;;;10.63;100.00;100571.00;5283396;28;20098;-72
2023/04/23 05:38:20;;;;;;;20.38;18.35;;;;;;;10.67;100.00;100568.94;5283338;28;20047;-72
2023/04/23 05:40:52;;;;;;;18.80;16.98;;;;;;;10.69;100.00;100564.41;5282386;28;20037;-72
2023/04/23 05:43:23;;;;;;;19.80;17.80;;;;;;;10.76;100.00;100562.88;5281711;28;20043;-72
2023/04/23 05:45:54;;;;;;;18.90;17.00;;;;;;;10.78;100.00;100557.50;5280571;28;20028;-72
2023/04/23 05:48:26;;;;;;;19.67;17.55;;;;;;;10.80;100.00;100552.97;5265160;28;20032;-72
2023/04/23 05:50:57;;;;;;;18.95;17.08;;;;;;;10.85;100.00;100558.59;5261468;28;20073;-72
2023/04/23 05:53:29;;;;;;;18.60;16.75;;;;;;;10.83;100.00;100553.47;5282955;28;20153;-72
2023/04/23 05:56:00;;;;;;;18.38;16.40;;;;;;;10.85;100.00;100555.97;5281424;28;20140;-72
2023/04/23 05:58:31;;;;;;;18.40;16.67;;;;;;;10.84;100.00;100557.78;5280941;28;20094;-72
2023/04/23 06:01:03;;;;;;;20.17;16.35;;;;;;;10.86;100.00;100552.38;5284354;28;20781;-73
2023/04/23 06:03:36;;;;;;;17.60;15.90;;;;;;;10.90;100.00;100557.19;5261940;28;20020;-72
2023/04/23 06:06:07;;;;;;;17.95;16.13;;;;;;;10.97;100.00;100552.25;5278391;28;20032;-72
2023/04/23 06:08:38;;;;;;;18.92;15.57;;;;;;;11.02;100.00;100554.44;5281070;28;20300;-72
2023/04/23 06:11:10;;;;;;;17.13;15.43;;;;;;;11.09;100.00;100558.16;5282246;28;20493;-72
2023/04/23 06:13:41;;;;;;;17.02;15.40;;;;;;;11.10;100.00;100552.78;5281068;28;20055;-72
2023/04/23 06:16:13;;;;;;;16.80;14.95;;;;;;;11.19;100.00;100558.97;5279689;28;20337;-72
2023/04/23 06:18:44;;;;;;;15.52;13.95;;;;;;;11.31;100.00;100543.91;5280410;28;20408;-72
2023/04/23 06:21:15;;;;;;;17.05;15.15;;;;;;;11.35;100.00;100545.25;5257170;28;20032;-73
2023/04/23 06:23:47;;;;;;;18.00;15.90;;;;;;;11.45;100.00;100539.03;5280130;28;20035;-72
2023/04/23 06:26:18;;;;;;;17.85;14.68;;;;;;;11.50;100.00;100533.34;5280960;28;20103;-72
2023/04/23 06:28:50;;;;;;;19.55;15.40;;;;;;;11.62;100.00;100526.94;5278907;28;20083;-73
2023/04/23 06:31:21;;;;;;;16.55;14.73;;;;;;;11.72;100.00;100523.47;5279449;28;20103;-72
2023/04/23 06:33:52;;;;;;;17.75;15.88;;;;;;;11.83;100.00;100528.50;5279816;28;20039;-73
2023/04/23 06:36:24;;;;;;;18.55;14.70;;;;;;;11.92;100.00;100533.72;5281894;28;20332;-72
2023/04/23 06:38:55;;;;;;;17.92;16.13;;;;;;;12.00;100.00;100522.50;5278926;28;20477;-72
2023/04/23 06:41:26;;;;;;;17.20;13.80;;;;;;;12.13;100.00;100519.53;5277161;28;20035;-72
2023/04/23 06:43:57;;;;;;;15.00;13.50;;;;;;;12.27;100.00;100524.25;5280455;28;20495;-73
2023/04/23 06:46:29;;;;;;;15.50;13.23;;;;;;;12.35;100.00;100526.13;5277223;28;20073;-72
2023/04/23 06:49:00;;;;;;;13.98;11.98;;;;;;;12.40;100.00;100529.16;5280650;28;20038;-72
2023/04/23 06:51:31;;;;;;;12.50;11.30;;;;;;;12.52;100.00;100527.13;5280761;28;20021;-73
2023/04/23 06:54:03;;;;;;;13.38;11.48;;;;;;;12.61;100.00;100515.69;5276456;28;20034;-73
2023/04/23 06:56:34;;;;;;;13.93;12.52;;;;;;;12.83;100.00;100520.50;5276436;28;20119;-73
2023/04/23 06:59:06;;;;;;;12.73;11.13;;;;;;;12.86;100.00;100514.94;5281687;28;20518;-73
2023/04/23 07:01:39;;;;;;;12.68;11.32;;;;;;;12.91;100.00;100512.66;5276443;28;20510;-72
2023/04/23 07:04:10;;;;;;;13.85;11.85;;;;;;;13.10;100.00;100526.59;5282644;28;20485;-73
2023/04/23 07:06:41;;;;;;;14.68;9.85;;;;;;;13.14;100.00;100515.63;5279866;28;20020;-72
2023/04/23 07:09:12;;;;;;;14.18;9.43;;;;;;;13.28;100.00;100518.69;5264308;28;20394;-73
2023/04/23 07:11:44;;;;;;;10.68;8.32;;;;;;;13.30;100.00;100517.56;5281406;28;20024;-73
2023/04/23 07:14:15;;;;;;;11.75;7.80;;;;;;;13.42;100.00;100512.84;5281040;28;20526;-72
2023/04/23 07:16:46;;;;;;;9.88;7.93;;;;;;;13.51;100.00;100516.34;5279565;28;20028;-72
2023/04/23 07:19:18;;;;;;;12.73;7.88;;;;;;;13.59;100.00;100511.13;5280830;28;20040;-73
2023/04/23 07:21:49;;;;;;;10.82;7.35;;;;;;;13.70;100.00;100508.19;5282491;28;20032;-72
2023/04/23 07:24:21;;;;;;;12.70;7.35;;;;;;;13.85;100.00;100511.06;5263511;28;20121;-72
2023/04/23 07:26:52;;;;;;;8.52;6.75;;;;;;;13.92;100.00;100513.88;5279227;28;20131;-72
2023/04/23 07:29:24;;;;;;;9.13;7.10;;;;;;;14.07;100.00;100517.56;5281153;28;20434;-72
2023/04/23 07:31:55;;;;;;;10.02;6.85;;;;;;;14.16;100.00;100508.66;5257964;28;20028;-73
2023/04/23 07:34:27;;;;;;;10.25;6.55;;;;;;;14.30;100.00;100515.94;5281810;28;20502;-73
2023/04/23 07:36:58;;;;;;;9.98;5.10;;;;;;;14.18;100.00;100501.44;5281534;28;20133;-73
2023/04/23 07:39:29;;;;;;;11.52;5.55;;;;;;;14.29;100.00;100503.75;5281908;28;20362;-73
2023/04/23 07:42:01;;;;;;;10.90;5.28;;;;;;;14.39;100.00;100495.69;5276651;28;20035;-73
2023/04/23 07:44:32;;;;;;;9.52;6.03;;;;;;;14.51;100.00;100501.53;5279624;28;20024;-73
2023/04/23 07:47:03;;;;;;;10.27;5.45;;;;;;;14.66;100.00;100491.97;5275071;28;20056;-73
2023/04/23 07:49:35;;;;;;;10.05;5.43;;;;;;;14.74;100.00;100502.50;5278551;28;20477;-73
2023/04/23 07:52:07;;;;;;;11.68;5.60;;;;;;;14.79;100.00;100494.91;5257325;28;20036;-71
2023/04/23 07:54:38;;;;;;;9.77;4.78;;;;;;;14.79;100.00;100488.81;5258763;28;20056;-74
2023/04/23 07:57:10;;;;;;;9.75;4.35;;;;;;;14.87;100.00;100494.09;5280087;28;20055;-73
2023/04/23 07:59:41;;;;;;;10.57;4.80;;;;;;;14.98;100.00;100495.56;5279048;28;20123;-73
2023/04/23 08:02:12;;;;;;;8.75;4.60;;;;;;;15.09;100.00;100497.84;5275099;28;20432;-73
2023/04/23 08:04:47;;;;;;;7.13;4.68;;;;;;;15.16;100.00;100479.53;5274755;28;20490;-73
2023/04/23 08:07:18;;;;;;;9.40;4.20;;;;;;;15.20;100.00;100489.56;5260469;28;20032;-73
2023/04/23 08:09:49;;;;;;;10.65;3.90;;;;;;;15.32;100.00;100493.50;5260783;28;20023;-73
2023/04/23 08:12:21;;;;;;;8.82;3.90;;;;;;;15.42;100.00;100481.91;5245651;28;20164;-73
2023/04/23 08:14:52;;;;;;;6.53;3.80;;;;;;;15.60;100.00;100481.69;5278244;28;20420;-73
2023/04/23 08:17:24;;;;;;;10.02;4.30;;;;;;;15.72;100.00;100475.91;5274772;28;20054;-73
2023/04/23 08:19:55;;;;;;;7.20;3.78;;;;;;;15.79;100.00;100479.47;5256279;28;20027;-73
2023/04/23 08:22:26;;;;;;;6.55;3.20;;;;;;;15.91;100.00;100477.28;5258651;28;20036;-73
2023/04/23 08:24:57;;;;;;;7.25;3.58;;;;;;;15.97;100.00;100473.13;5275984;28;20028;-73
2023/04/23 08:27:29;;;;;;;11.68;3.60;;;;;;;16.11;100.00;100469.72;5276634;28;20078;-73
2023/04/23 08:30:01;;;;;;;7.50;3.67;;;;;;;16.16;100.00;100464.72;5276133;28;20035;-73
2023/04/23 08:32:32;;;;;;;13.88;3.47;;;;;;;16.38;100.00;100475.50;5278521;28;20069;-73
2023/04/23 08:35:03;;;;;;;7.30;2.83;;;;;;;16.24;100.00;100469.94;5276492;28;20514;-73
2023/04/23 08:37:35;;;;;;;6.75;2.83;;;;;;;16.37;100.00;100474.66;5274149;28;20029;-73
2023/04/23 08:40:07;;;;;;;7.85;3.20;;;;;;;16.43;100.00;100473.94;5279234;28;20261;-73
2023/04/23 08:43:01;;;;;;;9.07;3.37;;;;;;;16.71;100.00;100471.56;5276523;28;20028;-73
2023/04/23 08:45:40;;;;;;;6.75;2.80;;;;;;;16.73;100.00;100466.09;5270840;28;20032;-73
2023/04/23 08:48:12;;;;;;;7.43;3.03;;;;;;;16.81;100.00;100475.81;5272567;28;20035;-73
2023/04/23 08:50:44;;;;;;;9.10;2.90;;;;;;;16.96;100.00;100466.06;5258260;28;20036;-73
2023/04/23 08:53:18;;;;;;;6.13;2.43;;;;;;;17.08;100.00;100471.72;5257860;28;20024;-73
2023/04/23 08:55:51;;;;;;;8.10;2.67;;;;;;;17.05;100.00;100459.72;5267113;28;20453;-73
2023/04/23 08:58:22;;;;;;;6.93;2.60;;;;;;;17.16;100.00;100469.84;5276267;28;20048;-73
2023/04/23 09:00:56;;;;;;;7.60;2.20;;;;;;;17.26;100.00;100465.06;5275721;28;20113;-74
2023/04/23 09:03:28;;;;;;;6.78;2.50;;;;;;;17.20;100.00;100465.81;5281062;28;20407;-73
2023/04/23 09:05:59;;;;;;;8.30;3.00;;;;;;;17.21;100.00;100464.81;5282306;28;20392;-73
2023/04/23 09:08:31;;;;;;;8.35;2.38;;;;;;;17.40;100.00;100466.09;5280730;28;20020;-74
2023/04/23 09:11:04;;;;;;;6.68;2.50;;;;;;;17.55;100.00;100471.38;5276200;28;20028;-73
2023/04/23 09:13:35;;;;;;;8.45;2.45;;;;;;;17.53;100.00;100468.06;5282954;28;20044;-74
2023/04/23 09:16:07;;;;;;;6.28;2.30;;;;;;;17.62;100.00;100466.97;5281677;28;20366;-73
2023/04/23 09:18:38;;;;;;;4.88;1.88;;;;;;;17.77;98.94;100460.84;5279111;28;20055;-73
2023/04/23 09:21:10;;;;;;;4.68;1.88;;;;;;;17.68;100.00;100463.56;5277529;28;20028;-73
2023/04/23 09:23:42;;;;;;;7.22;2.17;;;;;;;17.64;96.19;100457.00;5283465;28;20030;-73
2023/04/23 09:26:21;;;;;;;8.45;2.83;;;;;;;17.88;94.73;100450.59;5279733;28;20036;-74
2023/04/23 09:28:53;;;;;;;5.97;2.17;;;;;;;17.61;89.69;100454.72;5276134;28;20036;-74
2023/04/23 09:31:24;;;;;;;5.97;1.80;;;;;;;17.69;90.54;100443.19;5280159;28;20031;-74
2023/04/23 09:33:55;;;;;;;4.75;1.80;;;;;;;17.91;90.71;100444.91;5275038;28;20071;-74
2023/04/23 09:36:27;;;;;;;8.50;1.80;;;;;;;17.86;88.67;100460.56;5261351;28;20199;-74
2023/04/23 09:38:58;;;;;;;4.93;1.90;;;;;;;18.02;86.28;100440.13;5261829;28;20032;-74
2023/04/23 09:41:30;;;;;;;5.40;2.38;;;;;;;18.24;83.12;100437.28;5283692;28;20044;-73
2023/04/23 09:44:01;;;;;;;6.93;2.20;;;;;;;18.50;82.83;100435.88;5279791;28;20059;-74
2023/04/23 09:46:38;;;;;;;8.02;2.58;;;;;;;18.51;80.42;100434.84;5253231;28;20529;-73
2023/04/23 09:49:12;;;;;;;5.20;1.60;;;;;;;18.54;83.06;100441.63;5276193;28;20097;-73
2023/04/23 09:51:46;;;;;;;5.90;1.60;;;;;;;18.43;77.89;100440.31;5282120;28;20034;-72
2023/04/23 09:54:22;;;;;;;6.55;2.00;;;;;;;18.38;77.26;100427.63;5275749;28;20035;-73
2023/04/23 09:56:57;;;;;;;5.90;1.75;;;;;;;18.30;81.34;100433.06;5258699;28;20281;-73
2023/04/23 09:59:29;;;;;;;6.72;2.00;;;;;;;18.14;78.16;100439.41;5280146;28;20040;-73
2023/04/23 10:02:02;;;;;;;6.50;1.95;;;;;;;18.05;81.76;100434.44;5280805;28;20058;-73
2023/04/23 10:04:34;;;;;;;;;;;;;;;18.73;77.70;100424.25;5264260;28;20039;-73
2023/04/23 10:07:07;;;;;;;7.00;1.63;;;;;;;18.21;79.90;100432.34;5276874;28;19920;-73
2023/04/23 10:09:40;;;;;;;5.10;1.65;;;;;;;18.20;80.46;100430.72;5278537;28;20024;-73
2023/04/23 10:12:13;;;;;;;6.70;1.90;;;;;;;18.17;80.64;100415.19;5279422;28;20023;-73
2023/04/23 10:14:48;;;;;;;10.50;2.45;;;;;;;18.39;81.52;100420.47;5279598;28;20027;-73
2023/04/23 10:17:19;;;;;;;5.85;1.90;;;;;;;18.41;80.04;100411.34;5260263;28;20023;-73
2023/04/23 10:19:51;;;;;;;8.18;1.80;;;;;;;18.24;79.72;100415.25;5282335;28;20032;-73
2023/04/23 10:22:26;;;;;;;6.13;2.00;;;;;;;18.26;77.38;100418.56;5279640;28;20166;-73
2023/04/23 10:25:00;;;;;;;6.38;1.73;;;;;;;18.47;76.05;100407.06;5261947;28;20490;-73
2023/04/23 10:27:33;;;;;;;6.10;1.70;;;;;;;18.52;74.36;100411.78;5278279;28;20028;-73
2023/04/23 10:30:05;;;;;;;;;;;;;;;19.33;74.42;100412.13;5277219;28;20036;-73
2023/04/23 10:32:37;;;;;;;6.40;2.15;;;;;;;18.58;71.39;100411.03;5282067;28;19916;-73
2023/04/23 10:35:09;;;;;;;6.10;1.90;;;;;;;18.56;71.74;100399.78;5280324;28;20450;-73
2023/04/23 10:37:41;;;;;;;6.07;2.03;;;;;;;18.32;71.52;100406.34;5281290;28;20122;-73
2023/04/23 10:40:15;;;;;;;7.20;1.73;;;;;;;18.32;72.94;100399.19;5277486;28;20024;-73
2023/04/23 10:42:46;;;;;;;5.82;1.83;;;;;;;18.16;73.76;100408.25;5278448;28;20081;-73
2023/04/23 10:45:20;;;;;;;5.78;2.00;;;;;;;18.12;72.34;100398.22;5276290;28;20427;-73
2023/04/23 10:47:56;;;;;;;4.30;1.48;;;;;;;18.21;72.43;100402.38;5283532;28;20028;-72
2023/04/23 10:50:29;;;;;;;6.43;2.17;;;;;;;18.32;72.81;100398.38;5277778;28;20032;-73
2023/04/23 10:53:01;;;;;;;3.90;1.38;;;;;;;18.42;72.02;100385.63;5281429;28;20077;-73
2023/04/23 10:55:32;;;;;;;9.90;1.90;;;;;;;18.63;72.33;100376.78;5276170;28;20036;-73
2023/04/23 10:58:06;;;;;;;3.78;1.70;;;;;;;18.76;72.55;100378.75;5275184;28;20040;-73
2023/04/23 11:00:40;;;;;;;6.20;1.70;;;;;;;18.81;71.68;100377.13;5279265;28;20097;-73
2023/04/23 11:03:41;;;;;;;6.18;1.85;;;;;;;19.22;70.51;100371.00;5282238;28;20038;-73
2023/04/23 11:06:46;;;;;;;5.90;1.90;;;;;;;19.00;70.37;100364.16;5257622;28;20029;-73
2023/04/23 11:09:27;;;;;;;6.40;1.80;;;;;;;18.62;71.19;100362.69;5279766;28;20028;-73
2023/04/23 11:12:00;;;;;;;3.40;1.60;;;;;;;18.38;72.20;100371.94;5276875;28;20036;-73
2023/04/23 11:14:36;;;;;;;;;;;;;;;19.15;72.35;100368.31;5274192;28;20032;-73
2023/04/23 11:17:10;;;;;;;5.82;1.45;;;;;;;18.64;74.06;100355.38;5273547;28;20010;-73
2023/04/23 11:20:05;;;;;;;6.35;1.60;;;;;;;18.88;69.36;100355.94;5278589;28;20052;-73
2023/04/23 11:22:44;;;;;;;4.38;1.50;;;;;;;18.68;68.54;100353.97;5279334;28;20074;-73
2023/04/23 11:25:23;;;;;;;4.30;1.63;;;;;;;18.75;70.70;100343.41;5275395;28;20048;-73
2023/04/23 11:27:57;;;;;;;5.30;1.60;;;;;;;18.62;68.16;100338.81;5256949;28;20040;-73
2023/04/23 11:30:29;;;;;;;7.15;2.05;;;;;;;18.67;69.53;100344.34;5278919;28;20028;-73
2023/04/23 11:33:01;;;;;;;8.77;2.20;;;;;;;18.42;77.92;100343.19;5276340;28;20678;-73